Time;durP1;ratioP1;P1;durP2;ratioP2;P2;SDS_P1;SDS_P2;PMS_P1;PMS_P2;Temp;Humidity;BMP_temperature;BMP_pressure;BME280_temperature;BME280_humidity;BME280_pressure;Samples;Min_cycle;Max_cycle;Signal;HPM_P1;HPM_P2
2022/12/13 00:00:41;;;;;;;51.17;22.20;;;-4.90;99.90;;;;;;5097554;28;20342;-75
2022/12/13 00:03:07;;;;;;;50.65;22.45;;;-4.90;99.90;;;;;;5097040;28;20040;-78
2022/12/13 00:05:33;;;;;;;55.03;23.57;;;-5.00;99.90;;;;;;5093673;28;20036;-76
2022/12/13 00:08:00;;;;;;;49.78;22.70;;;-5.00;99.90;;;;;;5093735;28;20297;-78
2022/12/13 00:10:25;;;;;;;58.92;23.55;;;-5.00;99.90;;;;;;5093484;28;20040;-77
2022/12/13 00:12:51;;;;;;;47.33;22.55;;;-5.00;99.90;;;;;;5097151;28;20089;-76
2022/12/13 00:15:17;;;;;;;49.80;22.83;;;-4.90;99.90;;;;;;5097736;28;20044;-77
2022/12/13 00:17:44;;;;;;;47.35;22.10;;;-4.90;99.90;;;;;;5097907;28;20040;-79
2022/12/13 00:20:10;;;;;;;49.47;21.45;;;-4.90;99.90;;;;;;5097098;28;20044;-78
2022/12/13 00:22:36;;;;;;;47.53;22.23;;;-5.00;99.90;;;;;;5097988;28;20044;-78
2022/12/13 00:25:02;;;;;;;50.30;23.20;;;-5.00;99.90;;;;;;5098217;28;20109;-76
2022/12/13 00:27:27;;;;;;;53.70;23.20;;;-5.10;99.90;;;;;;5097466;28;20070;-76
2022/12/13 00:29:53;;;;;;;44.95;20.25;;;-5.00;99.90;;;;;;5097764;28;20105;-76
2022/12/13 00:32:18;;;;;;;51.00;22.57;;;-5.10;99.90;;;;;;5097581;28;20096;-78
2022/12/13 00:34:44;;;;;;;52.40;21.67;;;-5.10;99.90;;;;;;5097391;28;20040;-78
2022/12/13 00:37:10;;;;;;;43.00;21.67;;;-5.20;99.90;;;;;;5097678;28;20097;-78
2022/12/13 00:39:35;;;;;;;48.53;22.23;;;-5.40;99.90;;;;;;5097408;28;20549;-78
2022/12/13 00:42:01;;;;;;;46.03;21.17;;;-5.10;99.90;;;;;;5097371;28;20051;-76
2022/12/13 00:44:27;;;;;;;47.60;21.15;;;-5.10;99.90;;;;;;5097251;28;20396;-77
2022/12/13 00:46:53;;;;;;;41.50;19.97;;;-5.20;99.90;;;;;;5097243;28;20387;-77
2022/12/13 00:49:19;;;;;;;51.13;20.07;;;-6.00;99.90;;;;;;5097042;28;20464;-78
2022/12/13 00:51:47;;;;;;;54.03;22.35;;;-5.30;99.90;;;;;;5097182;28;20055;-75
2022/12/13 00:54:12;;;;;;;52.13;21.80;;;-5.30;99.90;;;;;;5095675;28;20507;-76
2022/12/13 00:56:38;;;;;;;45.80;20.67;;;-5.20;99.90;;;;;;5097051;28;20040;-75
2022/12/13 00:59:04;;;;;;;50.10;21.47;;;-5.20;99.90;;;;;;5097073;28;20126;-77
2022/12/13 01:01:32;;;;;;;49.05;20.92;;;-5.20;99.90;;;;;;5096231;28;20547;-77
2022/12/13 01:03:59;;;;;;;46.70;20.70;;;-5.30;99.90;;;;;;5102089;28;20475;-77
2022/12/13 01:06:32;;;;;;;49.92;20.70;;;-5.90;99.90;;;;;;5096842;28;20043;-76
2022/12/13 01:08:58;;;;;;;49.95;21.95;;;-5.40;99.90;;;;;;5096893;28;20039;-77
2022/12/13 01:11:24;;;;;;;52.17;20.93;;;-5.40;99.90;;;;;;5096755;28;20213;-77
2022/12/13 01:13:50;;;;;;;52.10;21.37;;;-5.40;99.90;;;;;;5095528;28;20048;-77
2022/12/13 01:16:17;;;;;;;54.60;20.73;;;-5.40;99.90;;;;;;5096657;28;20040;-79
2022/12/13 01:18:43;;;;;;;47.75;20.60;;;-5.60;99.90;;;;;;5096851;28;20044;-76
2022/12/13 01:21:13;;;;;;;48.90;22.00;;;-5.60;99.90;;;;;;5096638;28;20044;-78
2022/12/13 01:23:40;;;;;;;55.83;22.20;;;-5.30;99.90;;;;;;5096603;28;20056;-78
2022/12/13 01:26:08;;;;;;;62.42;24.20;;;-5.30;99.90;;;;;;5096285;28;20571;-76
2022/12/13 01:28:34;;;;;;;51.60;22.73;;;-5.20;99.90;;;;;;5096541;28;20155;-78
2022/12/13 01:31:03;;;;;;;46.40;21.50;;;-5.20;99.90;;;;;;5096489;28;20127;-77
2022/12/13 01:33:29;;;;;;;47.75;22.67;;;-5.20;99.90;;;;;;5096623;28;20040;-79
2022/12/13 01:35:55;;;;;;;54.80;21.20;;;-5.20;99.90;;;;;;5096041;28;20473;-77
2022/12/13 01:38:21;;;;;;;52.45;21.42;;;-5.20;99.90;;;;;;5096603;28;20327;-77
2022/12/13 01:40:56;;;;;;;48.83;23.33;;;-5.20;99.90;;;;;;5096391;28;20040;-78
2022/12/13 01:43:24;;;;;;;52.30;23.40;;;-3.50;99.90;;;;;;5096258;28;20127;-77
2022/12/13 01:45:50;;;;;;;62.63;22.92;;;-5.10;99.90;;;;;;5095981;28;20480;-79
2022/12/13 01:48:22;;;;;;;54.28;22.75;;;-5.10;99.90;;;;;;5095808;28;20057;-76
2022/12/13 01:50:50;;;;;;;52.78;22.88;;;-5.10;99.90;;;;;;5095011;28;20052;-78
2022/12/13 01:53:20;;;;;;;59.40;23.10;;;-5.10;99.90;;;;;;5095926;28;20054;-76
2022/12/13 01:55:52;;;;;;;51.25;22.55;;;-5.10;99.90;;;;;;5095961;28;20051;-77
2022/12/13 01:58:18;;;;;;;51.58;22.58;;;-5.10;99.90;;;;;;5094435;28;20145;-78
2022/12/13 02:00:45;;;;;;;51.85;22.60;;;-5.10;99.90;;;;;;5095857;28;20044;-78
2022/12/13 02:03:13;;;;;;;56.10;21.88;;;-5.10;99.90;;;;;;5095811;28;20105;-76
2022/12/13 02:05:43;;;;;;;51.15;21.48;;;-5.10;99.90;;;;;;5101766;28;20193;-77
2022/12/13 02:08:12;;;;;;;53.42;23.45;;;-5.10;99.90;;;;;;5095709;28;20047;-78
2022/12/13 02:10:38;;;;;;;56.30;23.40;;;-5.10;99.90;;;;;;5095618;28;20036;-78
2022/12/13 02:13:04;;;;;;;56.37;20.93;;;-5.20;99.90;;;;;;5094600;28;20067;-76
2022/12/13 02:15:59;;;;;;;59.97;22.87;;;-5.30;99.90;;;;;;5095491;28;20131;-76
2022/12/13 02:19:02;;;;;;;65.65;22.75;;;-5.40;99.90;;;;;;5077738;28;20137;-76
2022/12/13 02:22:09;;;;;;;52.80;22.80;;;-5.40;99.90;;;;;;5096229;28;20055;-77
2022/12/13 02:25:07;;;;;;;58.42;23.25;;;-5.50;99.90;;;;;;5054963;28;20139;-76
2022/12/13 02:27:46;;;;;;;53.45;23.23;;;-5.50;99.90;;;;;;5038957;28;20131;-78
2022/12/13 02:30:29;;;;;;;56.30;23.25;;;-5.50;99.90;;;;;;5095764;28;20044;-76
2022/12/13 02:33:26;;;;;;;56.90;23.95;;;-5.70;99.90;;;;;;5095361;28;20469;-77
2022/12/13 02:36:04;;;;;;;50.50;23.63;;;-5.70;99.90;;;;;;5094464;28;20044;-78
2022/12/13 02:39:01;;;;;;;62.60;25.67;;;-5.60;99.90;;;;;;5095276;28;20048;-78
2022/12/13 02:41:42;;;;;;;60.83;25.67;;;-5.70;99.90;;;;;;5093984;28;20096;-77
2022/12/13 02:44:19;;;;;;;54.40;24.58;;;-5.80;99.90;;;;;;5094987;28;20050;-77
2022/12/13 02:46:53;;;;;;;57.20;23.13;;;-6.10;99.90;;;;;;5094855;28;20126;-78
2022/12/13 02:49:22;;;;;;;57.60;22.50;;;-5.70;99.90;;;;;;5094783;28;20147;-79
2022/12/13 02:51:49;;;;;;;64.22;24.52;;;-5.70;99.90;;;;;;5094071;28;20043;-77
2022/12/13 02:54:15;;;;;;;57.90;22.95;;;-5.70;99.90;;;;;;5094808;28;20047;-76
2022/12/13 02:56:41;;;;;;;62.07;24.20;;;-5.70;99.90;;;;;;5094718;28;20388;-77
2022/12/13 02:59:13;;;;;;;56.13;23.07;;;-5.70;99.90;;;;;;5094427;28;20086;-77
2022/12/13 03:02:23;;;;;;;55.80;23.30;;;-5.70;99.90;;;;;;5077216;28;20086;-76
2022/12/13 03:08:25;;;;;;;65.72;23.50;;;-5.70;99.90;;;;;;5096978;28;20497;-77
2022/12/13 03:11:09;;;;;;;52.75;21.02;;;-5.70;99.90;;;;;;5094601;28;20043;-78
2022/12/13 03:13:56;;;;;;;56.10;21.75;;;-5.80;99.90;;;;;;5094390;28;20051;-78
2022/12/13 03:16:40;;;;;;;58.87;23.43;;;-5.80;99.90;;;;;;5094520;28;20051;-77
2022/12/13 03:19:09;;;;;;;59.72;22.77;;;-5.80;99.90;;;;;;5094337;28;20085;-76
2022/12/13 03:21:44;;;;;;;68.43;26.98;;;-5.80;99.90;;;;;;5094385;28;20089;-78
2022/12/13 03:24:11;;;;;;;60.15;24.77;;;-4.80;99.90;;;;;;5093135;28;20052;-77
2022/12/13 03:26:38;;;;;;;130.02;49.88;;;-6.00;99.90;;;;;;5093914;28;20462;-76
2022/12/13 03:29:05;;;;;;;104.47;40.63;;;-6.10;99.90;;;;;;5094069;28;20087;-77
2022/12/13 03:31:30;;;;;;;103.97;40.08;;;-6.10;99.90;;;;;;5094021;28;20475;-77
2022/12/13 03:33:56;;;;;;;100.70;40.03;;;-6.70;99.90;;;;;;5093110;28;20044;-75
2022/12/13 03:36:22;;;;;;;103.10;38.20;;;-5.90;99.90;;;;;;5094000;28;20048;-77
2022/12/13 03:38:51;;;;;;;95.10;38.72;;;-6.00;99.90;;;;;;5093980;28;20053;-78
2022/12/13 03:41:19;;;;;;;89.00;32.22;;;-6.20;99.90;;;;;;5094173;28;20066;-79
2022/12/13 03:43:45;;;;;;;69.22;29.63;;;-6.00;99.90;;;;;;5093927;28;20541;-78
2022/12/13 03:46:11;;;;;;;59.85;24.70;;;-5.90;99.90;;;;;;5093048;28;20048;-76
2022/12/13 03:48:37;;;;;;;61.08;24.70;;;-5.90;99.90;;;;;;5092669;28;20582;-76
2022/12/13 03:51:03;;;;;;;59.37;23.13;;;-6.00;99.90;;;;;;5093823;28;20055;-78
2022/12/13 03:53:29;;;;;;;64.73;25.17;;;-6.00;99.90;;;;;;5093905;28;20040;-76
2022/12/13 03:55:55;;;;;;;51.25;22.67;;;-5.50;99.90;;;;;;5094224;28;20402;-77
2022/12/13 03:58:21;;;;;;;55.40;24.30;;;-6.10;99.90;;;;;;5093798;28;20126;-76
2022/12/13 04:00:47;;;;;;;59.50;22.97;;;-6.10;99.90;;;;;;5093835;28;20051;-78
2022/12/13 04:03:13;;;;;;;54.23;22.37;;;-6.00;99.90;;;;;;5093483;28;20055;-77
2022/12/13 04:05:38;;;;;;;60.60;24.53;;;-6.00;99.90;;;;;;5093864;28;20083;-78
2022/12/13 04:08:04;;;;;;;56.67;22.38;;;-5.90;99.90;;;;;;5099370;28;20076;-78
2022/12/13 04:10:30;;;;;;;51.03;22.20;;;-4.60;99.90;;;;;;5093802;28;20087;-76
2022/12/13 04:15:47;;;;;;;86.90;29.50;;;-6.00;99.90;;;;;;5093533;28;20475;-77
2022/12/13 04:18:17;;;;;;;73.25;31.10;;;-5.90;99.90;;;;;;5092332;28;20056;-78
2022/12/13 04:20:43;;;;;;;69.30;28.90;;;-6.00;99.90;;;;;;5093862;28;20048;-78
2022/12/13 04:23:09;;;;;;;82.65;30.52;;;-6.00;99.90;;;;;;5093468;28;20122;-78
2022/12/13 04:25:34;;;;;;;64.10;28.33;;;-6.00;99.90;;;;;;5092483;28;20094;-75
2022/12/13 04:28:00;;;;;;;63.87;24.97;;;-6.10;99.90;;;;;;5092995;28;20048;-76
2022/12/13 04:30:26;;;;;;;60.37;25.60;;;-6.10;99.90;;;;;;5093306;28;20551;-76
2022/12/13 04:32:51;;;;;;;65.17;26.57;;;-6.10;99.90;;;;;;5093388;28;20059;-76
2022/12/13 04:35:18;;;;;;;72.22;25.55;;;-6.10;99.90;;;;;;5092978;28;20063;-76
2022/12/13 04:37:43;;;;;;;60.47;24.65;;;-6.50;99.90;;;;;;5093640;28;20097;-78
2022/12/13 04:40:10;;;;;;;55.83;22.67;;;-6.20;99.90;;;;;;5093315;28;20464;-77
2022/12/13 04:42:35;;;;;;;52.28;24.13;;;-6.30;99.90;;;;;;5093123;28;20052;-77
2022/12/13 04:45:01;;;;;;;56.87;23.80;;;-6.40;99.90;;;;;;5093296;28;20055;-77
2022/12/13 04:47:26;;;;;;;63.37;24.43;;;-7.00;99.90;;;;;;5093184;28;20071;-77
2022/12/13 04:49:52;;;;;;;58.77;24.10;;;-6.40;99.90;;;;;;5092936;28;20052;-77
2022/12/13 04:52:18;;;;;;;55.97;23.57;;;-6.40;99.90;;;;;;5093817;28;20048;-76
2022/12/13 04:54:44;;;;;;;54.03;22.90;;;-6.40;99.90;;;;;;5093125;28;20499;-77
2022/12/13 04:57:10;;;;;;;57.80;23.27;;;-6.90;99.90;;;;;;5093586;28;20083;-76
2022/12/13 04:59:36;;;;;;;50.78;22.20;;;-6.20;99.90;;;;;;5097003;28;20094;-76
2022/12/13 05:02:03;;;;;;;51.50;21.87;;;-6.30;99.90;;;;;;5096730;28;20044;-77
2022/12/13 05:04:29;;;;;;;48.67;21.95;;;-6.20;99.90;;;;;;5097032;28;20040;-76
2022/12/13 05:06:56;;;;;;;59.77;23.67;;;-6.10;99.90;;;;;;5095574;28;20036;-78
2022/12/13 05:09:22;;;;;;;48.25;21.50;;;-6.80;99.90;;;;;;5103401;28;20107;-75
2022/12/13 05:11:48;;;;;;;53.67;24.00;;;-6.10;99.90;;;;;;5096904;28;20055;-77
2022/12/13 05:14:14;;;;;;;58.03;24.37;;;-6.10;99.90;;;;;;5078574;28;20047;-78
2022/12/13 05:16:39;;;;;;;54.40;24.43;;;-4.80;99.90;;;;;;5096595;28;20050;-76
2022/12/13 05:19:05;;;;;;;64.93;24.17;;;-6.00;99.90;;;;;;5096221;28;20081;-76
2022/12/13 05:21:33;;;;;;;55.87;23.17;;;-6.10;99.90;;;;;;5096517;28;20044;-75
2022/12/13 05:24:02;;;;;;;55.28;22.65;;;-5.90;99.90;;;;;;5096481;28;20484;-76
2022/12/13 05:26:28;;;;;;;61.13;22.85;;;-5.90;99.90;;;;;;5095097;28;20063;-78
2022/12/13 05:28:58;;;;;;;57.47;24.40;;;-5.90;99.90;;;;;;5096463;28;20048;-77
2022/12/13 05:31:24;;;;;;;63.22;24.48;;;-5.90;99.90;;;;;;5096423;28;20117;-76
2022/12/13 05:33:50;;;;;;;63.80;25.63;;;-6.50;99.90;;;;;;5096402;28;20040;-78
2022/12/13 05:36:16;;;;;;;69.53;24.05;;;-5.90;99.90;;;;;;5096346;28;20040;-76
2022/12/13 05:38:41;;;;;;;55.87;24.50;;;-5.90;99.90;;;;;;5096522;28;20130;-78
2022/12/13 05:41:13;;;;;;;64.27;24.37;;;-5.90;99.90;;;;;;5096240;28;20484;-76
2022/12/13 05:43:39;;;;;;;57.28;24.60;;;-5.90;99.90;;;;;;5096220;28;20048;-77
2022/12/13 05:46:04;;;;;;;54.27;21.90;;;-6.00;99.90;;;;;;5096097;28;20391;-76
2022/12/13 05:48:30;;;;;;;53.53;21.43;;;-6.00;99.90;;;;;;5096043;28;20039;-77
2022/12/13 05:50:55;;;;;;;53.47;22.30;;;-6.00;99.90;;;;;;5095753;28;20044;-75
2022/12/13 05:53:21;;;;;;;53.20;23.00;;;-6.00;99.90;;;;;;5096126;28;20126;-77
2022/12/13 05:55:46;;;;;;;51.73;20.93;;;-6.00;99.90;;;;;;5095935;28;20408;-76
2022/12/13 05:58:14;;;;;;;55.17;22.55;;;-6.00;99.90;;;;;;5095834;28;20153;-78
2022/12/13 06:00:39;;;;;;;53.22;22.42;;;-6.10;99.90;;;;;;5095555;28;20059;-78
2022/12/13 06:03:05;;;;;;;54.97;22.87;;;-6.10;99.90;;;;;;5095687;28;20044;-76
2022/12/13 06:05:30;;;;;;;54.50;22.90;;;-6.10;99.90;;;;;;5096028;28;20048;-78
2022/12/13 06:07:56;;;;;;;41.80;21.33;;;-6.50;99.90;;;;;;5095729;28;20476;-77
2022/12/13 06:10:22;;;;;;;42.77;20.70;;;-6.10;99.90;;;;;;5099450;28;20048;-74
2022/12/13 06:12:48;;;;;;;44.93;21.00;;;-6.10;99.90;;;;;;5096932;28;20480;-78
2022/12/13 06:15:13;;;;;;;46.27;19.93;;;-6.20;99.90;;;;;;5095552;28;20051;-76
2022/12/13 06:17:39;;;;;;;54.13;20.57;;;-6.40;99.90;;;;;;5095474;28;20516;-76
2022/12/13 06:20:05;;;;;;;50.50;20.87;;;-6.10;99.90;;;;;;5095409;28;20044;-76
2022/12/13 06:22:31;;;;;;;45.90;21.40;;;-6.10;99.90;;;;;;5095355;28;20093;-75
2022/12/13 06:24:57;;;;;;;42.93;18.53;;;-6.10;99.90;;;;;;5095358;28;20087;-78
2022/12/13 06:27:23;;;;;;;43.80;20.17;;;-6.10;99.90;;;;;;5095245;28;20071;-80
2022/12/13 06:29:48;;;;;;;46.07;21.73;;;-6.10;99.90;;;;;;5094985;28;20046;-75
2022/12/13 06:32:14;;;;;;;41.47;19.30;;;-6.10;99.90;;;;;;5095069;28;20043;-78
2022/12/13 06:34:40;;;;;;;47.07;21.00;;;-6.10;99.90;;;;;;5095213;28;20045;-79
2022/12/13 06:37:09;;;;;;;47.43;19.70;;;-6.00;99.90;;;;;;5095505;28;20043;-76
2022/12/13 06:39:35;;;;;;;49.97;21.60;;;-6.10;99.90;;;;;;5095193;28;20126;-76
2022/12/13 06:42:05;;;;;;;38.03;18.60;;;-6.10;99.90;;;;;;5094963;28;20131;-76
2022/12/13 06:44:31;;;;;;;42.10;20.00;;;-5.00;99.90;;;;;;5094694;28;20037;-75
2022/12/13 06:46:57;;;;;;;38.60;19.47;;;-6.00;99.90;;;;;;5094864;28;20090;-75
2022/12/13 06:49:23;;;;;;;39.42;19.70;;;-6.00;99.90;;;;;;5094614;28;20059;-75
2022/12/13 06:51:48;;;;;;;48.73;18.93;;;-6.30;99.90;;;;;;5094786;28;20411;-75
2022/12/13 06:54:14;;;;;;;49.67;19.93;;;-6.00;99.90;;;;;;5094559;28;20043;-75
2022/12/13 06:56:40;;;;;;;43.23;20.73;;;-6.00;99.90;;;;;;5094935;28;20040;-75
2022/12/13 06:59:06;;;;;;;36.83;19.30;;;-6.10;99.90;;;;;;5094660;28;20032;-76
2022/12/13 07:01:32;;;;;;;42.17;20.13;;;-6.00;99.90;;;;;;5094658;28;20122;-75
2022/12/13 07:03:57;;;;;;;41.70;18.80;;;-6.00;99.90;;;;;;5095257;28;20348;-74
2022/12/13 07:06:24;;;;;;;46.37;20.83;;;-6.00;99.90;;;;;;5094509;28;20131;-75
2022/12/13 07:08:53;;;;;;;40.17;18.40;;;-6.00;99.90;;;;;;5094205;28;20502;-76
2022/12/13 07:11:22;;;;;;;51.35;21.02;;;-6.10;99.90;;;;;;5094436;28;20040;-75
2022/12/13 07:13:47;;;;;;;52.40;19.48;;;-6.00;99.90;;;;;;5094492;28;20489;-76
2022/12/13 07:16:14;;;;;;;48.13;20.20;;;-6.00;99.90;;;;;;5093131;28;20044;-75
2022/12/13 07:18:40;;;;;;;49.03;19.60;;;-6.00;99.90;;;;;;5094377;28;20055;-76
2022/12/13 07:21:08;;;;;;;42.60;18.53;;;-6.10;99.90;;;;;;5094025;28;20047;-75
2022/12/13 07:23:34;;;;;;;43.35;19.20;;;-6.00;99.90;;;;;;5094135;28;20463;-76
2022/12/13 07:26:00;;;;;;;43.63;19.02;;;-6.10;99.90;;;;;;5093962;28;20071;-77
2022/12/13 07:28:26;;;;;;;43.22;18.73;;;-6.00;99.90;;;;;;5094038;28;20055;-75
2022/12/13 07:30:51;;;;;;;46.47;19.13;;;-6.00;99.90;;;;;;5094115;28;20536;-75
2022/12/13 07:33:17;;;;;;;51.00;19.43;;;-6.00;99.90;;;;;;5093804;28;20040;-74
2022/12/13 07:35:43;;;;;;;51.27;20.97;;;-6.00;99.90;;;;;;5093844;28;20044;-74
2022/12/13 07:38:09;;;;;;;53.60;19.93;;;-6.00;99.90;;;;;;5094367;28;20036;-74
2022/12/13 07:40:37;;;;;;;45.72;20.50;;;-6.00;99.90;;;;;;5093958;28;20442;-79
2022/12/13 07:43:04;;;;;;;41.17;18.10;;;-6.10;99.90;;;;;;5093912;28;20083;-73
2022/12/13 07:45:29;;;;;;;;;;;-5.90;99.90;;;;;;5094312;28;20051;-73
2022/12/13 07:47:55;;;;;;;51.58;20.70;;;-5.90;99.90;;;;;;5092612;28;19920;-74
2022/12/13 07:50:21;;;;;;;46.73;21.60;;;-5.90;99.90;;;;;;5093927;28;20155;-73
2022/12/13 07:52:48;;;;;;;44.80;20.15;;;-5.80;99.90;;;;;;5092311;28;20101;-73
2022/12/13 07:55:14;;;;;;;47.03;20.90;;;-5.80;99.90;;;;;;5092796;28;20043;-73
2022/12/13 07:57:39;;;;;;;47.50;18.23;;;-5.80;99.90;;;;;;5092979;28;20587;-74
2022/12/13 08:00:06;;;;;;;45.73;20.83;;;-5.80;99.90;;;;;;5091949;28;20122;-73
2022/12/13 08:02:31;;;;;;;37.80;19.17;;;-5.80;99.90;;;;;;5093385;28;20043;-73
2022/12/13 08:04:57;;;;;;;48.17;19.43;;;-4.80;99.90;;;;;;5093673;28;20525;-74
2022/12/13 08:07:23;;;;;;;47.87;19.73;;;-6.00;99.90;;;;;;5093409;28;20138;-73
2022/12/13 08:09:48;;;;;;;46.03;20.53;;;-5.80;99.90;;;;;;5092165;28;20040;-74
2022/12/13 08:12:14;;;;;;;45.93;19.27;;;-5.80;99.90;;;;;;5092230;28;20091;-74
2022/12/13 08:14:39;;;;;;;48.27;21.13;;;-5.70;99.90;;;;;;5092780;28;20092;-73
2022/12/13 08:17:05;;;;;;;52.23;21.33;;;-5.70;99.90;;;;;;5093442;28;20047;-75
2022/12/13 08:19:31;;;;;;;44.57;20.30;;;-5.90;99.90;;;;;;5093200;28;20051;-74
2022/12/13 08:21:56;;;;;;;49.03;18.87;;;-5.70;99.90;;;;;;5093050;28;20157;-74
2022/12/13 08:24:27;;;;;;;41.67;19.38;;;-5.60;99.90;;;;;;5092292;28;20048;-77
2022/12/13 08:26:53;;;;;;;62.78;24.80;;;-5.70;99.90;;;;;;5075139;28;20404;-75
2022/12/13 08:29:19;;;;;;;66.15;25.20;;;-5.60;99.90;;;;;;5091452;28;20066;-75
2022/12/13 08:31:45;;;;;;;45.47;21.53;;;-5.50;99.90;;;;;;5092223;28;20052;-76
2022/12/13 08:34:10;;;;;;;40.17;19.55;;;-5.80;99.90;;;;;;5095878;28;20140;-77
2022/12/13 08:36:36;;;;;;;55.40;21.27;;;-5.60;99.90;;;;;;5078863;28;20466;-75
2022/12/13 08:39:03;;;;;;;48.17;21.13;;;-5.50;99.90;;;;;;5078807;28;20048;-78
2022/12/13 08:41:29;;;;;;;53.92;21.70;;;-5.50;99.90;;;;;;5095974;28;20074;-79
2022/12/13 08:43:55;;;;;;;49.75;19.08;;;-5.50;99.90;;;;;;5095433;28;20054;-78
2022/12/13 08:46:20;;;;;;;46.50;22.50;;;-5.50;99.90;;;;;;5097058;28;20040;-77
2022/12/13 08:48:46;;;;;;;51.83;21.27;;;-5.40;99.90;;;;;;5096556;28;20044;-78
2022/12/13 08:51:16;;;;;;;51.93;19.33;;;-6.00;99.90;;;;;;5097099;28;20131;-78
2022/12/13 08:53:42;;;;;;;54.88;21.85;;;-4.50;99.90;;;;;;5094124;28;20042;-79
2022/12/13 08:56:11;;;;;;;51.77;20.50;;;-4.30;99.90;;;;;;5090006;28;20045;-76
2022/12/13 08:58:37;;;;;;;55.47;22.83;;;-5.30;99.90;;;;;;5074951;28;20044;-84
2022/12/13 09:01:07;;;;;;;52.38;20.42;;;-5.30;99.90;;;;;;5059339;28;20041;-75
2022/12/13 09:03:33;;;;;;;43.00;20.88;;;-5.30;99.90;;;;;;5096522;28;20434;-76
2022/12/13 09:06:14;;;;;;;52.17;21.47;;;-4.20;99.90;;;;;;5096500;28;20044;-75
2022/12/13 09:08:40;;;;;;;47.67;21.40;;;-5.20;99.90;;;;;;5096113;28;20369;-74
2022/12/13 09:11:06;;;;;;;47.25;19.83;;;-5.20;99.90;;;;;;5096476;28;20040;-75
2022/12/13 09:13:34;;;;;;;53.38;22.85;;;-5.10;99.90;;;;;;5096235;28;20084;-75
2022/12/13 09:16:08;;;;;;;54.35;23.33;;;-5.00;99.90;;;;;;5095772;28;20044;-75
2022/12/13 09:18:34;;;;;;;47.25;21.65;;;-5.00;99.90;;;;;;5096148;28;20135;-76
2022/12/13 09:21:00;;;;;;;58.15;22.38;;;-4.90;99.90;;;;;;5096415;28;20113;-75
2022/12/13 09:23:25;;;;;;;52.80;23.27;;;-4.90;99.90;;;;;;5091183;28;20504;-76
2022/12/13 09:25:55;;;;;;;55.63;21.63;;;-4.80;99.90;;;;;;5091819;28;20055;-75
2022/12/13 09:28:21;;;;;;;56.42;22.98;;;-4.70;99.90;;;;;;5091219;28;20101;-75
2022/12/13 09:30:47;;;;;;;53.00;21.55;;;-4.40;99.90;;;;;;5077312;28;20052;-77
2022/12/13 09:33:13;;;;;;;61.85;22.60;;;-4.60;99.90;;;;;;5096078;28;20526;-74
2022/12/13 09:35:39;;;;;;;53.20;22.00;;;-4.50;99.90;;;;;;5095189;28;20055;-75
2022/12/13 09:38:04;;;;;;;57.47;23.60;;;-4.40;99.90;;;;;;5094695;28;20517;-71
2022/12/13 09:40:31;;;;;;;50.28;23.52;;;-4.30;99.90;;;;;;5095202;28;20154;-72
2022/12/13 09:42:58;;;;;;;52.45;23.25;;;-4.30;99.90;;;;;;5094651;28;20047;-75
2022/12/13 09:45:24;;;;;;;50.47;23.73;;;-4.10;99.90;;;;;;5095898;28;20043;-75
2022/12/13 09:47:52;;;;;;;58.90;25.08;;;-3.50;99.90;;;;;;5094715;28;20090;-75
2022/12/13 09:50:28;;;;;;;55.90;24.30;;;-3.40;99.90;;;;;;5094710;28;20036;-73
2022/12/13 09:52:54;;;;;;;59.28;25.30;;;-3.90;99.90;;;;;;5095584;28;20381;-73
2022/12/13 09:55:43;;;;;;;61.38;25.50;;;-3.80;99.90;;;;;;5095663;28;20051;-72
2022/12/13 09:58:33;;;;;;;61.20;24.60;;;-3.70;99.90;;;;;;5094402;28;20036;-73
2022/12/13 10:00:59;;;;;;;53.65;25.27;;;-3.50;99.90;;;;;;5094533;28;20043;-71
2022/12/13 10:03:26;;;;;;;53.28;24.63;;;-3.50;99.90;;;;;;5094160;28;20139;-79
2022/12/13 10:06:00;;;;;;;59.88;26.40;;;-3.40;99.90;;;;;;5094322;28;20480;-77
2022/12/13 10:08:40;;;;;;;62.47;26.85;;;-3.30;99.90;;;;;;5077113;28;20036;-75
2022/12/13 10:11:06;;;;;;;64.03;27.52;;;-3.30;99.90;;;;;;5077473;28;20052;-74
2022/12/13 10:13:45;;;;;;;56.72;25.85;;;-3.20;99.90;;;;;;5094166;28;20498;-75
2022/12/13 10:16:33;;;;;;;67.05;26.90;;;-3.10;99.90;;;;;;5094549;28;20109;-74
2022/12/13 10:19:01;;;;;;;62.95;25.70;;;-3.10;99.90;;;;;;5094732;28;20040;-72
2022/12/13 10:21:40;;;;;;;65.28;26.80;;;-3.00;99.90;;;;;;5094382;28;20040;-74
2022/12/13 10:24:18;;;;;;;59.25;27.52;;;-2.90;99.90;;;;;;5095302;28;20479;-73
2022/12/13 10:26:44;;;;;;;55.72;27.30;;;-2.90;99.90;;;;;;5093526;28;20467;-73
2022/12/13 10:29:10;;;;;;;59.75;25.48;;;-2.80;99.90;;;;;;5094185;28;20480;-75
2022/12/13 10:31:47;;;;;;;68.13;28.60;;;-1.60;99.90;;;;;;5095412;28;20046;-76
2022/12/13 10:34:21;;;;;;;64.90;27.55;;;-2.70;99.90;;;;;;5095589;28;20044;-75
2022/12/13 10:36:47;;;;;;;53.97;25.80;;;-2.70;99.90;;;;;;5095123;28;20036;-74
2022/12/13 10:39:17;;;;;;;55.15;26.20;;;-2.60;99.90;;;;;;5095179;28;20123;-70
2022/12/13 10:41:45;;;;;;;59.80;26.75;;;-2.60;99.90;;;;;;5095589;28;20040;-74
2022/12/13 10:44:10;;;;;;;55.55;26.02;;;-2.50;99.90;;;;;;5093643;28;20052;-75
2022/12/13 10:46:40;;;;;;;56.13;26.17;;;-2.50;99.90;;;;;;5094881;28;20059;-75
2022/12/13 10:49:24;;;;;;;72.47;28.10;;;-2.40;99.90;;;;;;5094905;28;20082;-75
2022/12/13 10:51:53;;;;;;;60.70;27.05;;;-2.40;99.90;;;;;;5095330;28;20036;-75
2022/12/13 10:54:35;;;;;;;59.40;27.33;;;-2.30;99.90;;;;;;5094856;28;20048;-74
2022/12/13 10:57:01;;;;;;;54.45;27.15;;;-2.10;99.90;;;;;;5094568;28;20036;-73
2022/12/13 10:59:31;;;;;;;59.50;28.15;;;-2.20;99.90;;;;;;5094760;28;20113;-76
2022/12/13 11:02:02;;;;;;;58.28;29.15;;;-2.10;99.90;;;;;;5098580;28;20039;-76
2022/12/13 11:04:34;;;;;;;58.53;28.65;;;-2.10;99.90;;;;;;5103983;28;20046;-76
2022/12/13 11:07:21;;;;;;;60.97;27.65;;;-1.10;99.90;;;;;;5094927;28;20040;-75
2022/12/13 11:09:47;;;;;;;61.20;28.38;;;-2.10;99.90;;;;;;5094773;28;20391;-76
2022/12/13 11:12:17;;;;;;;66.40;28.00;;;-2.00;99.90;;;;;;5094451;28;20055;-73
2022/12/13 11:14:54;;;;;;;58.88;28.27;;;-1.90;99.90;;;;;;5094522;28;20044;-74
2022/12/13 11:17:26;;;;;;;67.97;29.53;;;-1.90;99.90;;;;;;5094677;28;20040;-76
2022/12/13 11:19:55;;;;;;;61.13;30.30;;;-1.50;99.90;;;;;;5094670;28;20633;-77
2022/12/13 11:22:24;;;;;;;60.60;27.85;;;-1.00;99.90;;;;;;5094463;28;20044;-77
2022/12/13 11:24:56;;;;;;;54.72;28.13;;;-1.80;99.90;;;;;;5094227;28;20174;-75
2022/12/13 11:27:39;;;;;;;67.88;29.70;;;-1.80;99.90;;;;;;5094377;28;20091;-76
2022/12/13 11:30:16;;;;;;;65.05;28.92;;;-1.70;99.90;;;;;;5094435;28;20059;-76
2022/12/13 11:33:01;;;;;;;60.90;28.65;;;-1.70;99.90;;;;;;5094297;28;20048;-76
2022/12/13 11:35:39;;;;;;;53.28;28.58;;;-1.60;99.90;;;;;;5051961;28;20131;-76
2022/12/13 11:38:24;;;;;;;54.45;28.73;;;-1.60;99.90;;;;;;5094393;28;20044;-76
2022/12/13 11:40:58;;;;;;;56.15;27.55;;;-1.60;99.90;;;;;;5094138;28;20040;-75
2022/12/13 11:43:51;;;;;;;58.35;27.63;;;-1.50;99.90;;;;;;5094078;28;20048;-75
2022/12/13 11:46:21;;;;;;;61.03;28.20;;;-1.50;99.90;;;;;;5094427;28;20463;-75
2022/12/13 11:48:54;;;;;;;57.63;27.23;;;-1.40;99.90;;;;;;5094129;28;20044;-75
2022/12/13 11:51:30;;;;;;;59.28;27.90;;;-1.40;99.90;;;;;;5093985;28;20089;-74
2022/12/13 11:54:09;;;;;;;53.50;26.98;;;-1.40;99.90;;;;;;5094141;28;20079;-75
2022/12/13 11:56:40;;;;;;;57.15;29.00;;;-1.40;99.90;;;;;;5094601;28;20451;-77
2022/12/13 11:59:41;;;;;;;59.40;28.02;;;-1.30;99.90;;;;;;5094321;28;20109;-76
2022/12/13 12:02:33;;;;;;;52.67;26.63;;;-1.30;99.90;;;;;;5094129;28;20079;-76
2022/12/13 12:05:05;;;;;;;62.30;28.95;;;-0.80;99.90;;;;;;5093963;28;20050;-76
2022/12/13 12:07:55;;;;;;;53.85;27.05;;;-1.20;99.90;;;;;;5093148;28;20044;-75
2022/12/13 12:10:34;;;;;;;57.72;27.27;;;-1.20;99.90;;;;;;5093715;28;20438;-75
2022/12/13 12:13:29;;;;;;;49.78;25.52;;;-1.20;99.90;;;;;;5093736;28;20083;-76
2022/12/13 12:16:20;;;;;;;55.13;26.20;;;-1.10;99.90;;;;;;5086336;28;20058;-75
2022/12/13 12:18:46;;;;;;;59.40;28.13;;;-1.10;99.90;;;;;;5094467;28;20048;-75
2022/12/13 12:21:21;;;;;;;50.58;26.30;;;-1.10;99.90;;;;;;5095681;28;20579;-76
2022/12/13 12:24:05;;;;;;;56.83;27.42;;;-1.00;99.90;;;;;;5094002;28;20040;-76
2022/12/13 12:26:55;;;;;;;57.58;28.27;;;-1.00;99.90;;;;;;5093834;28;20096;-78
2022/12/13 12:29:38;;;;;;;56.33;27.92;;;-1.00;99.90;;;;;;5093577;28;20154;-80
2022/12/13 12:32:27;;;;;;;50.55;26.63;;;-0.90;99.90;;;;;;5093575;28;20504;-77
2022/12/13 12:35:18;;;;;;;57.30;27.48;;;-0.90;99.90;;;;;;5090818;28;20043;-77
2022/12/13 12:38:11;;;;;;;52.10;26.55;;;-0.90;99.90;;;;;;5060413;28;20484;-76
2022/12/13 12:40:47;;;;;;;57.25;28.48;;;-0.90;99.90;;;;;;5092922;28;20052;-76
2022/12/13 12:43:30;;;;;;;58.50;28.35;;;0.00;99.90;;;;;;5091042;28;20113;-77
2022/12/13 12:46:11;;;;;;;55.08;26.20;;;-0.20;99.90;;;;;;5092780;28;20113;-77
2022/12/13 12:49:15;;;;;;;56.92;27.58;;;-0.90;99.90;;;;;;5092731;28;20080;-77